Time;durP1;ratioP1;P1;durP2;ratioP2;P2;SDS_P1;SDS_P2;PMS_P1;PMS_P2;Temp;Humidity;BMP_temperature;BMP_pressure;BME280_temperature;BME280_humidity;BME280_pressure;Samples;Min_cycle;Max_cycle;Signal;HPM_P1;HPM_P2
2022/05/20 00:02:06;;;;;;;2.25;1.90;;;;;;;;;;5025950;28;20468;-72
2022/05/20 00:04:35;;;;;;;8.02;2.38;;;;;;;;;;5027741;28;20054;-72
2022/05/20 00:07:03;;;;;;;2.80;1.92;;;;;;;;;;5023733;28;20073;-72
2022/05/20 00:09:32;;;;;;;4.20;1.88;;;;;;;;;;5016319;28;20085;-72
2022/05/20 00:12:00;;;;;;;3.30;1.98;;;;;;;;;;5028808;28;20128;-72
2022/05/20 00:14:30;;;;;;;5.70;1.98;;;;;;;;;;5024698;28;20041;-73
2022/05/20 00:17:01;;;;;;;4.40;2.08;;;;;;;;;;5020465;28;20667;-72
2022/05/20 00:19:31;;;;;;;2.75;1.83;;;;;;;;;;5028409;28;20061;-73
2022/05/20 00:21:59;;;;;;;2.05;1.60;;;;;;;;;;5030033;28;20084;-72
2022/05/20 00:24:28;;;;;;;2.65;1.70;;;;;;;;;;5028320;28;20056;-73
2022/05/20 00:26:56;;;;;;;2.80;1.60;;;;;;;;;;5028013;28;20568;-72
2022/05/20 00:29:25;;;;;;;4.22;1.98;;;;;;;;;;5019367;28;20042;-73
2022/05/20 00:31:54;;;;;;;6.07;1.88;;;;;;;;;;5024826;28;20548;-72
2022/05/20 00:34:22;;;;;;;2.60;1.92;;;;;;;;;;5019304;28;20091;-72
2022/05/20 00:36:52;;;;;;;2.45;1.88;;;;;;;;;;5018355;28;20057;-72
2022/05/20 00:39:20;;;;;;;4.82;1.75;;;;;;;;;;5022997;28;20045;-72
2022/05/20 00:41:48;;;;;;;4.95;2.10;;;;;;;;;;5026236;28;20223;-72
2022/05/20 00:44:16;;;;;;;6.45;2.17;;;;;;;;;;5024728;28;20077;-76
2022/05/20 00:46:45;;;;;;;3.85;1.73;;;;;;;;;;5026349;28;20100;-77
2022/05/20 00:49:15;;;;;;;4.18;2.00;;;;;;;;;;5020098;28;20046;-72
2022/05/20 00:51:44;;;;;;;3.13;2.10;;;;;;;;;;5021690;28;20041;-72
2022/05/20 00:54:17;;;;;;;2.47;1.60;;;;;;;;;;5019652;28;20081;-72
2022/05/20 00:56:48;;;;;;;5.18;2.05;;;;;;;;;;5035314;28;20049;-76
2022/05/20 00:59:18;;;;;;;3.22;1.75;;;;;;;;;;5017433;28;20413;-72
2022/05/20 01:01:48;;;;;;;2.45;1.88;;;;;;;;;;5021357;28;20498;-76
2022/05/20 01:04:17;;;;;;;6.50;2.20;;;;;;;;;;5020594;28;20064;-73
2022/05/20 01:06:46;;;;;;;3.25;1.52;;;;;;;;;;5039327;22;20088;-83
2022/05/20 01:09:16;;;;;;;3.92;1.75;;;;;;;;;;5051117;28;20079;-84
2022/05/20 01:11:44;;;;;;;4.13;1.98;;;;;;;;;;5041035;28;20308;-85
2022/05/20 01:14:20;;;;;;;3.88;1.60;;;;;;;;;;5049428;28;20037;-86
2022/05/20 01:16:48;;;;;;;3.05;1.92;;;;;;;;;;5059050;22;20076;-93
2022/05/20 01:19:20;;;;;;;3.63;2.05;;;;;;;;;;5053733;28;20037;-92
2022/05/20 01:21:48;;;;;;;5.85;1.92;;;;;;;;;;5054240;28;20487;-93
2022/05/20 01:24:18;;;;;;;4.93;2.25;;;;;;;;;;5053824;28;20450;-92
2022/05/20 01:26:46;;;;;;;3.55;2.20;;;;;;;;;;5055673;28;20106;-93
2022/05/20 01:29:15;;;;;;;3.40;2.00;;;;;;;;;;5037170;28;20099;-92
2022/05/20 01:31:43;;;;;;;6.15;2.38;;;;;;;;;;5034306;28;20530;-93
2022/05/20 01:34:12;;;;;;;5.50;2.28;;;;;;;;;;5034819;28;20420;-92
2022/05/20 01:36:40;;;;;;;2.97;2.05;;;;;;;;;;5034887;28;20084;-93
2022/05/20 01:39:09;;;;;;;4.47;2.20;;;;;;;;;;5050421;28;20080;-92
2022/05/20 01:41:48;;;;;;;4.40;1.92;;;;;;;;;;5055210;28;20049;-93
2022/05/20 01:44:20;;;;;;;4.38;2.05;;;;;;;;;;5054868;28;20081;-92
2022/05/20 01:46:56;;;;;;;2.45;1.85;;;;;;;;;;5054840;28;20053;-92
2022/05/20 01:49:27;;;;;;;7.15;2.72;;;;;;;;;;5039033;28;20418;-93
2022/05/20 01:52:00;;;;;;;7.25;2.97;;;;;;;;;;5037292;28;20056;-93
2022/05/20 01:54:31;;;;;;;3.33;2.20;;;;;;;;;;5037977;28;20045;-93
2022/05/20 01:59:58;;;;;;;4.38;2.08;;;;;;;;;;5036700;28;20053;-93
2022/05/20 02:02:27;;;;;;;;;;;;;;;;;;5049347;28;20049;-92
2022/05/20 02:04:57;;;;;;;2.83;2.10;;;;;;;;;;5057614;28;20372;-92
2022/05/20 02:07:28;;;;;;;3.90;2.13;;;;;;;;;;5051955;28;20065;-93
2022/05/20 02:09:58;;;;;;;3.38;1.95;;;;;;;;;;5056955;28;20057;-93
2022/05/20 02:12:31;;;;;;;5.97;2.38;;;;;;;;;;5047814;28;20109;-93
2022/05/20 02:15:01;;;;;;;;;;;;;;;;;;5054732;28;20061;-92
2022/05/20 02:17:31;;;;;;;2.90;2.00;;;;;;;;;;5050240;28;19967;-92
2022/05/20 02:20:04;;;;;;;3.63;1.90;;;;;;;;;;5038021;28;20053;-93
2022/05/20 02:22:42;;;;;;;2.85;1.95;;;;;;;;;;5037713;28;20144;-93
2022/05/20 02:25:11;;;;;;;2.33;1.63;;;;;;;;;;5032943;28;20046;-94
2022/05/20 02:27:44;;;;;;;2.10;1.60;;;;;;;;;;5036031;28;20069;-92
2022/05/20 02:30:14;;;;;;;2.33;1.65;;;;;;;;;;5036693;28;20099;-92
2022/05/20 02:32:49;;;;;;;2.42;1.70;;;;;;;;;;5035298;28;20049;-92
2022/05/20 02:35:17;;;;;;;6.57;2.40;;;;;;;;;;5034799;28;20084;-93
2022/05/20 02:37:46;;;;;;;2.97;2.00;;;;;;;;;;5036768;28;20068;-92
2022/05/20 02:40:16;;;;;;;5.18;2.42;;;;;;;;;;5028074;28;20162;-93
2022/05/20 02:42:46;;;;;;;3.95;2.20;;;;;;;;;;5029583;28;20522;-93
2022/05/20 02:45:16;;;;;;;3.20;1.92;;;;;;;;;;5025851;28;20041;-92
2022/05/20 02:47:45;;;;;;;3.10;1.73;;;;;;;;;;5036635;28;20333;-93
2022/05/20 02:50:14;;;;;;;3.05;1.70;;;;;;;;;;5036750;28;20124;-93
2022/05/20 02:52:42;;;;;;;7.50;2.05;;;;;;;;;;5033740;28;20115;-92
2022/05/20 02:55:11;;;;;;;3.88;1.92;;;;;;;;;;5035175;28;20057;-93
2022/05/20 02:57:42;;;;;;;6.20;2.10;;;;;;;;;;5034232;28;20068;-93
2022/05/20 03:06:13;;;;;;;7.75;1.88;;;;;;;;;;5037393;28;20491;-93
2022/05/20 03:13:14;;;;;;;3.33;1.88;;;;;;;;;;5033830;28;20492;-93
2022/05/20 03:15:57;;;;;;;2.65;1.73;;;;;;;;;;5047953;28;20476;-93
2022/05/20 03:18:26;;;;;;;2.20;1.55;;;;;;;;;;5054951;28;20045;-93
2022/05/20 03:20:55;;;;;;;4.32;2.20;;;;;;;;;;5052424;28;20328;-93
2022/05/20 03:23:27;;;;;;;3.50;1.55;;;;;;;;;;5055279;28;20125;-93
2022/05/20 03:25:59;;;;;;;3.80;1.70;;;;;;;;;;5056461;28;20068;-93
2022/05/20 03:31:18;;;;;;;3.25;1.95;;;;;;;;;;5055188;28;20080;-93
2022/05/20 03:33:47;;;;;;;4.13;2.60;;;;;;;;;;5057380;28;20095;-93
2022/05/20 03:36:16;;;;;;;4.43;2.13;;;;;;;;;;5054666;28;20049;-93
2022/05/20 03:41:57;;;;;;;3.00;1.92;;;;;;;;;;5057125;28;20096;-93
2022/05/20 03:44:46;;;;;;;3.05;1.85;;;;;;;;;;5057093;28;20052;-93
2022/05/20 03:47:16;;;;;;;2.75;1.42;;;;;;;;;;5052623;28;20527;-93
2022/05/20 03:49:46;;;;;;;4.25;1.35;;;;;;;;;;5056705;28;20570;-92
2022/05/20 03:52:18;;;;;;;3.03;1.80;;;;;;;;;;5051391;28;20455;-92
2022/05/20 03:54:50;;;;;;;3.38;1.63;;;;;;;;;;5057119;28;20072;-92
2022/05/20 03:57:52;;;;;;;2.22;1.40;;;;;;;;;;5054319;28;20055;-93
2022/05/20 04:03:46;;;;;;;2.88;2.00;;;;;;;;;;5055318;28;20095;-93
2022/05/20 04:06:15;;;;;;;2.80;1.75;;;;;;;;;;5040382;28;20512;-93
2022/05/20 04:08:43;;;;;;;6.40;2.10;;;;;;;;;;5055218;28;20048;-93
2022/05/20 04:14:04;;;;;;;4.10;1.60;;;;;;;;;;5054080;28;20099;-93
2022/05/20 04:16:33;;;;;;;5.53;1.83;;;;;;;;;;5056671;28;20052;-92
2022/05/20 04:19:03;;;;;;;2.95;1.75;;;;;;;;;;5045052;28;20510;-94
2022/05/20 04:21:31;;;;;;;3.25;1.77;;;;;;;;;;5048289;28;20052;-92
2022/05/20 04:24:47;;;;;;;2.70;1.65;;;;;;;;;;5049494;28;20044;-92
2022/05/20 04:27:16;;;;;;;2.53;1.52;;;;;;;;;;5056360;28;20045;-92
2022/05/20 04:39:16;;;;;;;3.33;1.85;;;;;;;;;;5055296;28;20059;-93
2022/05/20 04:47:25;;;;;;;2.22;1.50;;;;;;;;;;5045378;28;20119;-93
2022/05/20 04:49:54;;;;;;;3.63;1.70;;;;;;;;;;5034555;28;20382;-94
2022/05/20 04:52:24;;;;;;;3.90;2.22;;;;;;;;;;5026806;28;20111;-94
2022/05/20 04:54:51;;;;;;;4.47;1.42;;;;;;;;;;5033843;28;20224;-94
2022/05/20 04:57:21;;;;;;;2.42;1.65;;;;;;;;;;5032913;28;20450;-94
2022/05/20 04:59:51;;;;;;;3.83;1.60;;;;;;;;;;5052329;28;20122;-93
2022/05/20 05:02:20;;;;;;;4.07;2.08;;;;;;;;;;5056647;28;20079;-94
2022/05/20 05:04:49;;;;;;;3.67;2.00;;;;;;;;;;5058544;28;20091;-93
2022/05/20 05:07:17;;;;;;;3.38;1.85;;;;;;;;;;5054856;28;20080;-93
2022/05/20 05:09:47;;;;;;;4.18;1.63;;;;;;;;;;5044827;28;20144;-93
2022/05/20 05:12:16;;;;;;;2.80;1.90;;;;;;;;;;5051612;28;20055;-92
2022/05/20 05:14:46;;;;;;;4.22;2.08;;;;;;;;;;5042626;28;20099;-93
2022/05/20 05:17:15;;;;;;;5.22;1.88;;;;;;;;;;5050713;28;20102;-93
2022/05/20 05:19:45;;;;;;;5.90;1.75;;;;;;;;;;5032760;28;20077;-93
2022/05/20 05:22:14;;;;;;;3.50;1.70;;;;;;;;;;5033205;28;20053;-93
2022/05/20 05:24:43;;;;;;;2.00;1.55;;;;;;;;;;5032628;28;20108;-93
2022/05/20 05:27:22;;;;;;;3.22;1.80;;;;;;;;;;5030531;28;20076;-92
2022/05/20 05:29:51;;;;;;;6.10;2.20;;;;;;;;;;5034546;28;20550;-93
2022/05/20 05:32:20;;;;;;;5.03;2.10;;;;;;;;;;5013007;28;20156;-93
2022/05/20 05:34:48;;;;;;;3.25;2.10;;;;;;;;;;5034130;28;20104;-93
2022/05/20 05:37:17;;;;;;;2.90;2.00;;;;;;;;;;5030651;28;20057;-92
2022/05/20 05:39:46;;;;;;;4.60;1.85;;;;;;;;;;5047668;28;20065;-92
2022/05/20 05:42:15;;;;;;;2.83;1.85;;;;;;;;;;5051987;28;20544;-92
2022/05/20 05:44:44;;;;;;;3.25;1.70;;;;;;;;;;5053797;28;20518;-92
2022/05/20 05:47:13;;;;;;;4.30;2.15;;;;;;;;;;5050125;28;20443;-91
2022/05/20 05:49:41;;;;;;;2.95;1.85;;;;;;;;;;5019369;28;20108;-92
2022/05/20 05:52:09;;;;;;;3.38;1.92;;;;;;;;;;5021937;28;20437;-92
2022/05/20 05:54:38;;;;;;;4.88;1.67;;;;;;;;;;5030991;28;20054;-92
2022/05/20 05:57:07;;;;;;;3.33;1.70;;;;;;;;;;5014607;28;20049;-92
2022/05/20 05:59:37;;;;;;;2.58;1.85;;;;;;;;;;5040520;28;20088;-92
2022/05/20 06:02:08;;;;;;;4.45;1.33;;;;;;;;;;5040071;28;20053;-93
2022/05/20 06:04:37;;;;;;;2.17;1.70;;;;;;;;;;5053978;28;20127;-93
2022/05/20 06:07:06;;;;;;;6.13;1.92;;;;;;;;;;5047272;28;20053;-92
2022/05/20 06:09:35;;;;;;;3.55;1.80;;;;;;;;;;5034238;28;20111;-93
2022/05/20 06:12:07;;;;;;;3.17;1.98;;;;;;;;;;5023887;28;20045;-93
2022/05/20 06:14:37;;;;;;;2.08;1.60;;;;;;;;;;5034352;28;20049;-93
2022/05/20 06:17:05;;;;;;;2.17;1.85;;;;;;;;;;5014396;28;20053;-93
2022/05/20 06:22:17;;;;;;;3.08;1.85;;;;;;;;;;5040049;28;20453;-93
2022/05/20 06:24:45;;;;;;;6.00;2.10;;;;;;;;;;5033709;28;20576;-93
2022/05/20 06:27:14;;;;;;;2.63;1.77;;;;;;;;;;5017155;28;20060;-92
2022/05/20 06:29:44;;;;;;;2.83;1.73;;;;;;;;;;5013024;28;20050;-93
2022/05/20 06:32:12;;;;;;;4.47;1.88;;;;;;;;;;5014801;28;20046;-94
2022/05/20 06:40:15;;;;;;;3.30;1.65;;;;;;;;;;5036460;28;20057;-93
2022/05/20 06:42:44;;;;;;;2.95;1.90;;;;;;;;;;5032325;28;20493;-93
2022/05/20 06:45:39;;;;;;;3.72;1.88;;;;;;;;;;5037996;28;20148;-93
2022/05/20 06:48:45;;;;;;;2.95;2.00;;;;;;;;;;5026856;28;20465;-93
2022/05/20 06:53:59;;;;;;;2.83;1.48;;;;;;;;;;5036756;28;20084;-94
2022/05/20 06:56:29;;;;;;;3.15;1.95;;;;;;;;;;5032007;28;20045;-95
2022/05/20 06:59:12;;;;;;;3.05;2.03;;;;;;;;;;5032536;28;20128;-94
2022/05/20 07:01:40;;;;;;;2.70;1.90;;;;;;;;;;5039904;28;20067;-93
2022/05/20 07:04:31;;;;;;;6.90;2.20;;;;;;;;;;5027573;28;20047;-94
2022/05/20 07:07:01;;;;;;;2.65;1.65;;;;;;;;;;5042803;28;20098;-94
2022/05/20 07:09:30;;;;;;;3.05;2.08;;;;;;;;;;5039506;28;20053;-94
2022/05/20 07:11:58;;;;;;;3.85;1.88;;;;;;;;;;5037915;28;20105;-94
2022/05/20 07:14:27;;;;;;;9.65;2.15;;;;;;;;;;5026300;28;20050;-94
2022/05/20 07:16:56;;;;;;;2.50;1.50;;;;;;;;;;5054966;28;20060;-94
2022/05/20 07:19:25;;;;;;;2.17;1.70;;;;;;;;;;5043582;28;20095;-93
2022/05/20 07:21:55;;;;;;;2.50;1.70;;;;;;;;;;5047756;28;20136;-93
2022/05/20 07:24:23;;;;;;;2.67;1.77;;;;;;;;;;5040160;28;20049;-93
2022/05/20 07:26:51;;;;;;;2.15;1.38;;;;;;;;;;5037987;28;20049;-93
2022/05/20 07:29:20;;;;;;;2.22;1.80;;;;;;;;;;5051775;28;20179;-95
2022/05/20 07:31:49;;;;;;;2.47;1.73;;;;;;;;;;5054462;28;20084;-94
2022/05/20 07:34:18;;;;;;;3.60;1.60;;;;;;;;;;5061072;28;20045;-95
2022/05/20 07:36:47;;;;;;;4.75;2.03;;;;;;;;;;5056240;28;20136;-94
2022/05/20 07:39:17;;;;;;;1.95;1.65;;;;;;;;;;5058084;28;20148;-94
2022/05/20 07:41:47;;;;;;;2.75;1.75;;;;;;;;;;5057760;28;20056;-94
2022/05/20 07:44:36;;;;;;;3.28;1.75;;;;;;;;;;5065906;28;20051;-94
2022/05/20 07:47:05;;;;;;;3.65;2.00;;;;;;;;;;5047270;28;20044;-93
2022/05/20 07:53:21;;;;;;;5.22;1.98;;;;;;;;;;4972821;28;20050;-93
2022/05/20 07:56:07;;;;;;;4.53;1.55;;;;;;;;;;4974579;28;20050;-94
2022/05/20 07:58:41;;;;;;;2.22;1.50;;;;;;;;;;4953886;28;20401;-94
2022/05/20 08:01:32;;;;;;;3.70;2.00;;;;;;;;;;4973168;28;20051;-94
2022/05/20 08:10:26;;;;;;;5.03;1.48;;;;;;;;;;4994722;28;20050;-94
2022/05/20 08:12:56;;;;;;;5.05;1.60;;;;;;;;;;4989529;28;20053;-94
2022/05/20 08:15:31;;;;;;;3.10;1.80;;;;;;;;;;4990536;28;20510;-94
2022/05/20 08:18:00;;;;;;;2.80;1.70;;;;;;;;;;4995980;28;20137;-93
2022/05/20 08:20:30;;;;;;;3.72;1.98;;;;;;;;;;5012924;28;20124;-94
2022/05/20 08:23:00;;;;;;;4.32;2.00;;;;;;;;;;5046966;28;20114;-93
2022/05/20 08:25:52;;;;;;;2.67;1.63;;;;;;;;;;5035149;28;20057;-94
2022/05/20 08:28:29;;;;;;;3.65;1.75;;;;;;;;;;5024401;28;20038;-93
2022/05/20 08:30:58;;;;;;;1.67;1.58;;;;;;;;;;5017537;28;20057;-94
2022/05/20 08:33:27;;;;;;;3.65;1.65;;;;;;;;;;5015725;28;20144;-93
2022/05/20 08:38:40;;;;;;;2.45;1.88;;;;;;;;;;5004626;28;20042;-94
2022/05/20 08:41:08;;;;;;;3.40;1.98;;;;;;;;;;5012321;28;20052;-94
2022/05/20 08:43:39;;;;;;;3.05;1.75;;;;;;;;;;5025058;28;20041;-95
2022/05/20 08:46:09;;;;;;;2.33;1.77;;;;;;;;;;5037916;28;20045;-93
2022/05/20 08:48:42;;;;;;;2.10;1.60;;;;;;;;;;5054355;28;20113;-94
2022/05/20 08:51:11;;;;;;;4.65;1.73;;;;;;;;;;5059979;28;20055;-93
2022/05/20 08:53:42;;;;;;;2.85;2.25;;;;;;;;;;5057790;28;20111;-93
2022/05/20 08:56:13;;;;;;;2.67;1.67;;;;;;;;;;5057734;28;20052;-94
2022/05/20 08:58:48;;;;;;;3.42;2.13;;;;;;;;;;5058485;28;20083;-95
2022/05/20 09:07:11;;;;;;;4.45;1.80;;;;;;;;;;5056584;28;20071;-94
2022/05/20 09:09:44;;;;;;;3.83;1.88;;;;;;;;;;5069824;28;20139;-94
2022/05/20 09:12:28;;;;;;;3.33;1.90;;;;;;;;;;5060129;28;20072;-95
2022/05/20 09:17:51;;;;;;;3.72;1.73;;;;;;;;;;5054046;28;20048;-94
2022/05/20 09:20:20;;;;;;;3.20;2.08;;;;;;;;;;5055811;28;20049;-94
2022/05/20 09:22:58;;;;;;;3.33;1.75;;;;;;;;;;5054073;28;20045;-94
2022/05/20 09:28:30;;;;;;;3.00;1.70;;;;;;;;;;5010630;28;20061;-91
2022/05/20 09:31:13;;;;;;;2.35;1.90;;;;;;;;;;5045699;28;20049;-94
2022/05/20 09:33:42;;;;;;;5.45;2.15;;;;;;;;;;5054254;28;20045;-92
2022/05/20 09:36:11;;;;;;;3.00;1.98;;;;;;;;;;5055518;28;20049;-92
2022/05/20 09:38:43;;;;;;;3.65;1.80;;;;;;;;;;5054768;28;20084;-92
2022/05/20 09:41:17;;;;;;;5.03;1.77;;;;;;;;;;5052301;28;20472;-91
2022/05/20 09:43:52;;;;;;;4.80;1.88;;;;;;;;;;5039538;28;20044;-93
2022/05/20 09:46:33;;;;;;;9.10;1.90;;;;;;;;;;5058332;28;20049;-92
2022/05/20 09:49:05;;;;;;;3.10;2.15;;;;;;;;;;5040337;28;20424;-92
2022/05/20 09:51:39;;;;;;;4.20;2.00;;;;;;;;;;5037479;28;20049;-92
2022/05/20 09:54:15;;;;;;;3.83;1.90;;;;;;;;;;5037832;28;20117;-92
2022/05/20 09:56:45;;;;;;;4.22;2.28;;;;;;;;;;5033654;28;20056;-92
2022/05/20 09:59:19;;;;;;;4.32;2.00;;;;;;;;;;5025932;28;20404;-92
2022/05/20 10:01:53;;;;;;;4.50;1.98;;;;;;;;;;5033115;28;20262;-92
2022/05/20 10:04:26;;;;;;;3.45;1.95;;;;;;;;;;5034040;28;20442;-92
2022/05/20 10:06:58;;;;;;;4.20;2.40;;;;;;;;;;5036275;28;20060;-92
2022/05/20 10:09:32;;;;;;;2.53;2.20;;;;;;;;;;5035253;28;20154;-93
2022/05/20 10:12:03;;;;;;;3.10;1.90;;;;;;;;;;5050592;28;20095;-92
2022/05/20 10:14:37;;;;;;;3.53;1.73;;;;;;;;;;5053438;28;20045;-92
2022/05/20 10:17:11;;;;;;;3.20;2.20;;;;;;;;;;5057805;28;20057;-92
2022/05/20 10:19:48;;;;;;;3.30;2.40;;;;;;;;;;5057155;28;20064;-92
2022/05/20 10:22:20;;;;;;;3.67;1.95;;;;;;;;;;5058618;28;20291;-92
2022/05/20 10:24:52;;;;;;;3.42;2.25;;;;;;;;;;5059028;28;20124;-92
2022/05/20 10:27:23;;;;;;;4.38;2.20;;;;;;;;;;5054354;28;20444;-93
2022/05/20 10:32:56;;;;;;;2.97;1.83;;;;;;;;;;5059386;28;20348;-92
2022/05/20 10:35:26;;;;;;;6.78;2.20;;;;;;;;;;5041093;28;20479;-92
2022/05/20 10:38:05;;;;;;;3.72;2.47;;;;;;;;;;5049663;28;20059;-92
2022/05/20 10:40:40;;;;;;;4.50;2.08;;;;;;;;;;5043912;28;20042;-92
2022/05/20 10:43:14;;;;;;;2.67;2.05;;;;;;;;;;5054000;28;20055;-92
2022/05/20 10:48:54;;;;;;;2.22;1.98;;;;;;;;;;5058791;28;20403;-92
2022/05/20 10:51:42;;;;;;;4.63;2.47;;;;;;;;;;5057591;28;20049;-93
2022/05/20 10:54:19;;;;;;;3.05;2.00;;;;;;;;;;5056228;28;20452;-93
2022/05/20 10:56:58;;;;;;;5.45;2.10;;;;;;;;;;5058884;28;20507;-92
2022/05/20 10:59:37;;;;;;;5.30;2.20;;;;;;;;;;5040490;28;20053;-91
2022/05/20 11:02:14;;;;;;;6.32;2.20;;;;;;;;;;5052823;28;20444;-92
2022/05/20 11:05:01;;;;;;;4.90;2.10;;;;;;;;;;5056166;28;20404;-93
2022/05/20 11:07:39;;;;;;;3.55;2.30;;;;;;;;;;5052988;28;20045;-91
2022/05/20 11:10:15;;;;;;;2.70;2.08;;;;;;;;;;5058064;28;20078;-94
2022/05/20 11:12:49;;;;;;;3.17;1.83;;;;;;;;;;5054450;28;20087;-91
2022/05/20 11:15:23;;;;;;;4.55;2.00;;;;;;;;;;5051853;28;20475;-91
2022/05/20 11:18:06;;;;;;;3.85;2.25;;;;;;;;;;5046817;28;20055;-91
2022/05/20 11:20:41;;;;;;;3.22;2.10;;;;;;;;;;5031090;28;20080;-88
2022/05/20 11:23:36;;;;;;;3.35;2.10;;;;;;;;;;5025659;28;20107;-91
2022/05/20 11:26:36;;;;;;;3.22;2.20;;;;;;;;;;4999002;28;20081;-92
2022/05/20 11:29:18;;;;;;;2.95;1.90;;;;;;;;;;4949693;28;20051;-92
2022/05/20 11:31:50;;;;;;;4.53;2.17;;;;;;;;;;5044520;28;20393;-92
2022/05/20 11:37:29;;;;;;;2.97;2.42;;;;;;;;;;5050818;28;20064;-93
2022/05/20 11:40:12;;;;;;;3.72;2.35;;;;;;;;;;5052389;28;20076;-91
2022/05/20 11:42:50;;;;;;;4.60;2.65;;;;;;;;;;5043590;28;20049;-92
2022/05/20 11:45:27;;;;;;;3.35;2.25;;;;;;;;;;5058892;28;20156;-91
2022/05/20 11:48:05;;;;;;;3.25;2.33;;;;;;;;;;5029623;28;20124;-91
2022/05/20 11:50:51;;;;;;;5.15;2.20;;;;;;;;;;5026706;28;20041;-92
2022/05/20 11:56:30;;;;;;;3.75;2.33;;;;;;;;;;5040470;28;20057;-93
2022/05/20 11:59:09;;;;;;;2.28;1.83;;;;;;;;;;5037174;28;20050;-92
2022/05/20 12:01:40;;;;;;;4.85;1.80;;;;;;;;;;5031009;28;20102;-93
2022/05/20 12:04:10;;;;;;;7.25;2.35;;;;;;;;;;5032757;28;20049;-93
2022/05/20 12:06:48;;;;;;;2.80;2.00;;;;;;;;;;5043279;28;20057;-94
2022/05/20 12:09:36;;;;;;;2.83;2.13;;;;;;;;;;5044237;28;20053;-92
2022/05/20 12:12:13;;;;;;;3.47;2.15;;;;;;;;;;5043456;28;20129;-93
2022/05/20 12:15:15;;;;;;;4.03;1.80;;;;;;;;;;5038347;28;20054;-92
2022/05/20 12:17:46;;;;;;;4.20;2.42;;;;;;;;;;4975433;28;20561;-92
2022/05/20 12:26:31;;;;;;;3.95;1.67;;;;;;;;;;4950077;28;20089;-92
2022/05/20 12:29:00;;;;;;;4.25;2.50;;;;;;;;;;4994429;28;20054;-91
2022/05/20 12:31:41;;;;;;;2.38;1.70;;;;;;;;;;5033828;28;20057;-92
2022/05/20 12:34:31;;;;;;;2.35;1.83;;;;;;;;;;5027456;28;20077;-92
2022/05/20 12:37:00;;;;;;;2.75;1.80;;;;;;;;;;5036522;28;20110;-92
2022/05/20 12:39:45;;;;;;;4.07;2.03;;;;;;;;;;5024484;28;20131;-92
2022/05/20 12:42:46;;;;;;;8.30;2.38;;;;;;;;;;5031441;28;20098;-93
2022/05/20 12:45:15;;;;;;;3.63;2.08;;;;;;;;;;5051376;28;20044;-93
2022/05/20 12:47:44;;;;;;;3.03;2.25;;;;;;;;;;5056482;28;20072;-93
2022/05/20 12:50:23;;;;;;;4.05;1.70;;;;;;;;;;5057257;28;20467;-92
2022/05/20 12:52:54;;;;;;;3.33;2.22;;;;;;;;;;5059815;28;20049;-92
2022/05/20 12:55:24;;;;;;;6.03;2.10;;;;;;;;;;5057108;28;20044;-92
2022/05/20 12:57:54;;;;;;;3.20;2.25;;;;;;;;;;5054125;28;20045;-93
2022/05/20 13:00:55;;;;;;;3.97;2.17;;;;;;;;;;5050357;28;20053;-92
2022/05/20 13:03:31;;;;;;;4.72;2.30;;;;;;;;;;5046020;28;20072;-92
2022/05/20 13:06:10;;;;;;;4.90;1.95;;;;;;;;;;5054507;28;20415;-92
2022/05/20 13:08:58;;;;;;;2.88;2.15;;;;;;;;;;5052188;28;20045;-92
2022/05/20 13:11:27;;;;;;;5.55;2.45;;;;;;;;;;5045886;28;20128;-92
2022/05/20 13:13:58;;;;;;;4.07;1.88;;;;;;;;;;5051531;28;20062;-93
2022/05/20 13:16:27;;;;;;;3.30;2.00;;;;;;;;;;5053640;28;20049;-93
2022/05/20 13:19:00;;;;;;;2.47;1.90;;;;;;;;;;5055392;28;20104;-92
2022/05/20 13:21:32;;;;;;;3.75;1.80;;;;;;;;;;5055846;28;20051;-92
2022/05/20 13:24:01;;;;;;;5.32;2.10;;;;;;;;;;5053415;28;20040;-92
2022/05/20 13:26:31;;;;;;;2.05;1.85;;;;;;;;;;5055903;28;20080;-92
2022/05/20 13:29:01;;;;;;;3.75;1.90;;;;;;;;;;5050892;28;20056;-92
2022/05/20 13:31:29;;;;;;;3.33;1.80;;;;;;;;;;5050847;28;20424;-92
2022/05/20 13:33:58;;;;;;;3.65;2.17;;;;;;;;;;5055134;28;20056;-92
2022/05/20 13:40:02;;;;;;;5.88;2.20;;;;;;;;;;5052533;28;20041;-92
2022/05/20 13:42:34;;;;;;;2.45;1.90;;;;;;;;;;5054044;28;20136;-92
2022/05/20 13:45:13;;;;;;;3.55;1.90;;;;;;;;;;5054938;28;20076;-93
2022/05/20 13:50:29;;;;;;;4.25;2.17;;;;;;;;;;5054448;28;20079;-93
2022/05/20 13:52:58;;;;;;;5.15;1.90;;;;;;;;;;5057468;28;20056;-92
2022/05/20 13:55:30;;;;;;;3.55;2.03;;;;;;;;;;5058327;28;20392;-93
2022/05/20 13:58:00;;;;;;;3.90;2.00;;;;;;;;;;5058149;28;20052;-94
2022/05/20 14:03:42;;;;;;;2.63;2.20;;;;;;;;;;5051857;28;20214;-93
2022/05/20 14:06:30;;;;;;;2.22;1.70;;;;;;;;;;5051857;28;20069;-92
2022/05/20 14:09:01;;;;;;;4.35;2.15;;;;;;;;;;5046140;28;20056;-92
2022/05/20 14:11:31;;;;;;;4.00;2.10;;;;;;;;;;5043194;28;20687;-94
2022/05/20 14:14:03;;;;;;;2.05;1.60;;;;;;;;;;5047704;28;20068;-91
2022/05/20 14:16:33;;;;;;;4.15;2.05;;;;;;;;;;5051070;28;20111;-91
2022/05/20 14:19:07;;;;;;;4.68;1.90;;;;;;;;;;5022242;28;20051;-91
2022/05/20 14:21:37;;;;;;;2.63;1.95;;;;;;;;;;5042946;28;20115;-91
2022/05/20 14:24:09;;;;;;;6.00;2.53;;;;;;;;;;5048807;28;20102;-91
2022/05/20 14:26:43;;;;;;;3.03;1.58;;;;;;;;;;5044352;28;20045;-90
2022/05/20 14:29:16;;;;;;;6.05;2.25;;;;;;;;;;5060636;28;20072;-91
2022/05/20 14:31:49;;;;;;;2.80;1.90;;;;;;;;;;5055683;28;20052;-93
2022/05/20 14:34:20;;;;;;;3.35;1.55;;;;;;;;;;5050432;28;20057;-91
2022/05/20 14:36:49;;;;;;;3.10;2.10;;;;;;;;;;5047408;28;20095;-90
2022/05/20 14:39:28;;;;;;;4.93;1.83;;;;;;;;;;5048247;28;20521;-91
2022/05/20 14:41:58;;;;;;;5.22;2.00;;;;;;;;;;5039581;28;20056;-91
2022/05/20 14:44:28;;;;;;;3.78;1.80;;;;;;;;;;5051548;28;20513;-91
2022/05/20 14:47:15;;;;;;;2.80;2.15;;;;;;;;;;5052034;28;20053;-91
2022/05/20 14:50:05;;;;;;;3.90;2.15;;;;;;;;;;5030679;28;20566;-91
2022/05/20 14:52:51;;;;;;;3.55;2.10;;;;;;;;;;5046563;28;20041;-91
2022/05/20 14:55:23;;;;;;;3.22;1.80;;;;;;;;;;5051540;28;20053;-90
2022/05/20 14:57:53;;;;;;;;;;;;;;;;;;5048796;28;20067;-91
2022/05/20 15:00:25;;;;;;;3.40;2.10;;;;;;;;;;5054065;28;19920;-91
2022/05/20 15:03:00;;;;;;;3.65;1.85;;;;;;;;;;5049052;28;20151;-91
2022/05/20 15:05:31;;;;;;;4.00;1.88;;;;;;;;;;5057490;28;20124;-90
2022/05/20 15:08:03;;;;;;;4.70;2.25;;;;;;;;;;5052578;28;20064;-92
2022/05/20 15:10:33;;;;;;;6.00;2.03;;;;;;;;;;5050699;28;20102;-90
2022/05/20 15:13:16;;;;;;;3.72;2.42;;;;;;;;;;5043909;28;20048;-90
2022/05/20 15:15:46;;;;;;;4.78;2.30;;;;;;;;;;5044789;28;20053;-90
2022/05/20 15:18:18;;;;;;;3.15;2.13;;;;;;;;;;5053860;28;20044;-90
2022/05/20 15:20:54;;;;;;;3.15;2.10;;;;;;;;;;5044107;28;20421;-90
2022/05/20 15:23:25;;;;;;;4.93;2.17;;;;;;;;;;5059147;28;20055;-91
2022/05/20 15:25:54;;;;;;;5.90;1.95;;;;;;;;;;5056293;28;20095;-90
2022/05/20 15:36:55;;;;;;;2.88;2.10;;;;;;;;;;5055111;28;20080;-91
2022/05/20 15:39:25;;;;;;;5.30;2.00;;;;;;;;;;5051880;28;20056;-91
2022/05/20 15:41:54;;;;;;;2.70;1.98;;;;;;;;;;5050305;28;20452;-90
2022/05/20 15:44:22;;;;;;;3.00;1.90;;;;;;;;;;5052099;28;20361;-90
2022/05/20 15:47:08;;;;;;;3.22;1.85;;;;;;;;;;5055732;28;20083;-90
2022/05/20 15:49:53;;;;;;;3.28;1.98;;;;;;;;;;5052573;28;20070;-90
2022/05/20 15:52:24;;;;;;;4.60;2.10;;;;;;;;;;5049494;28;20045;-90
2022/05/20 15:54:54;;;;;;;3.92;2.15;;;;;;;;;;5054700;28;20076;-91
2022/05/20 15:57:24;;;;;;;4.25;2.20;;;;;;;;;;5045314;28;20052;-91
2022/05/20 15:59:53;;;;;;;5.35;2.30;;;;;;;;;;5049358;28;20040;-90
2022/05/20 16:02:22;;;;;;;4.50;2.10;;;;;;;;;;5048912;28;20160;-90
2022/05/20 16:05:22;;;;;;;3.60;2.15;;;;;;;;;;5063133;28;20056;-91
2022/05/20 16:07:52;;;;;;;2.55;1.90;;;;;;;;;;5054273;28;20071;-91
2022/05/20 16:10:22;;;;;;;5.90;1.92;;;;;;;;;;5054728;28;20479;-89
2022/05/20 16:13:05;;;;;;;4.95;2.10;;;;;;;;;;5049724;28;20496;-90
2022/05/20 16:16:00;;;;;;;5.53;2.10;;;;;;;;;;5052208;28;20061;-90
2022/05/20 16:22:07;;;;;;;5.97;2.15;;;;;;;;;;5057815;28;20052;-91
2022/05/20 16:25:04;;;;;;;2.72;2.08;;;;;;;;;;5061595;28;20055;-92
2022/05/20 16:27:34;;;;;;;5.35;2.55;;;;;;;;;;5051147;28;20099;-90
2022/05/20 16:30:10;;;;;;;7.68;2.40;;;;;;;;;;5053614;28;20136;-91
2022/05/20 16:32:39;;;;;;;2.67;2.03;;;;;;;;;;5071538;28;20044;-91
2022/05/20 16:35:15;;;;;;;4.43;2.20;;;;;;;;;;5067257;28;20106;-91
2022/05/20 16:37:59;;;;;;;4.50;2.33;;;;;;;;;;5059897;28;20048;-91
2022/05/20 16:40:29;;;;;;;3.35;2.15;;;;;;;;;;5060515;28;20085;-92
2022/05/20 16:42:57;;;;;;;1.98;1.75;;;;;;;;;;5059734;28;20048;-92
2022/05/20 16:45:26;;;;;;;4.93;2.10;;;;;;;;;;5060414;28;20057;-92
2022/05/20 16:47:58;;;;;;;4.35;2.17;;;;;;;;;;5068595;28;20056;-91
2022/05/20 16:53:21;;;;;;;4.78;2.25;;;;;;;;;;5052868;28;20076;-92
2022/05/20 16:55:49;;;;;;;3.78;2.28;;;;;;;;;;5059580;28;20056;-88
2022/05/20 17:03:55;;;;;;;6.07;2.60;;;;;;;;;;5054402;28;20064;-90
2022/05/20 17:06:42;;;;;;;6.47;2.63;;;;;;;;;;5047420;28;20453;-90
2022/05/20 17:09:20;;;;;;;5.18;2.10;;;;;;;;;;5035677;28;20055;-89
2022/05/20 17:11:55;;;;;;;5.68;2.28;;;;;;;;;;5046222;28;20045;-91
2022/05/20 17:14:34;;;;;;;8.77;3.05;;;;;;;;;;5027787;28;20051;-91
2022/05/20 17:17:08;;;;;;;4.70;2.40;;;;;;;;;;5038042;28;20041;-90
2022/05/20 17:19:37;;;;;;;6.50;2.85;;;;;;;;;;5051241;28;20045;-90
2022/05/20 17:27:51;;;;;;;8.52;2.85;;;;;;;;;;5049691;28;20053;-91
2022/05/20 17:30:20;;;;;;;5.25;2.40;;;;;;;;;;5049832;28;20046;-90